Time;durP1;ratioP1;P1;durP2;ratioP2;P2;SDS_P1;SDS_P2;PMS_P1;PMS_P2;Temp;Humidity;BMP_temperature;BMP_pressure;BME280_temperature;BME280_humidity;BME280_pressure;Samples;Min_cycle;Max_cycle;Signal;HPM_P1;HPM_P2
2023/12/25 00:01:27;;;;;;;6.90;1.40;;;;;;;5.71;100.00;96781.60;109104;1257;60775;-63
2023/12/25 00:04:14;;;;;;;5.70;1.20;;;;;;;5.72;100.00;96787.81;109028;1257;60141;-63
2023/12/25 00:07:02;;;;;;;7.80;1.50;;;;;;;5.73;100.00;96804.10;109031;1257;70755;-63
2023/12/25 00:09:50;;;;;;;8.90;1.50;;;;;;;5.74;100.00;96803.87;109058;1257;66655;-63
2023/12/25 00:12:38;;;;;;;6.30;1.40;;;;;;;5.73;100.00;96800.42;109067;1257;71608;-63
2023/12/25 00:15:25;;;;;;;6.50;1.70;;;;;;;5.73;100.00;96814.27;109124;1257;57555;-64
2023/12/25 00:18:13;;;;;;;6.20;1.30;;;;;;;5.73;100.00;96820.63;109070;1257;60338;-62
2023/12/25 00:21:01;;;;;;;6.90;1.50;;;;;;;5.73;100.00;96823.13;109182;1257;73871;-63
2023/12/25 00:23:48;;;;;;;7.30;1.80;;;;;;;5.73;100.00;96827.32;109196;1257;67826;-63
2023/12/25 00:26:40;;;;;;;6.30;1.40;;;;;;;5.73;100.00;96836.80;109187;1257;72572;-65
2023/12/25 00:29:28;;;;;;;5.60;1.40;;;;;;;5.71;100.00;96829.63;109185;1257;59506;-63
2023/12/25 00:32:16;;;;;;;6.10;1.60;;;;;;;5.70;100.00;96831.31;109160;1257;58846;-63
2023/12/25 00:35:04;;;;;;;6.40;1.50;;;;;;;5.69;100.00;96835.84;109154;1256;71354;-64
2023/12/25 00:37:52;;;;;;;6.70;1.20;;;;;;;5.67;100.00;96831.38;109110;1256;67954;-65
2023/12/25 00:40:39;;;;;;;6.50;1.60;;;;;;;5.64;100.00;96837.30;109154;1257;72596;-65
2023/12/25 00:43:29;;;;;;;5.80;1.40;;;;;;;5.65;100.00;96838.81;109095;1257;60524;-63
2023/12/25 00:46:16;;;;;;;7.20;1.40;;;;;;;5.62;100.00;96849.57;109061;1258;61130;-65
2023/12/25 00:49:04;;;;;;;6.90;1.20;;;;;;;5.63;100.00;96860.38;109132;1257;71488;-65
2023/12/25 00:51:52;;;;;;;8.70;1.60;;;;;;;5.63;100.00;96852.99;109083;1257;67899;-63
2023/12/25 00:54:40;;;;;;;6.80;1.40;;;;;;;5.64;100.00;96859.25;109166;1257;72601;-63
2023/12/25 00:57:29;;;;;;;7.50;1.70;;;;;;;5.65;100.00;96856.19;109162;1257;59273;-64
2023/12/25 01:00:17;;;;;;;5.90;1.60;;;;;;;5.67;100.00;96856.88;109142;1257;58748;-63
2023/12/25 01:03:04;;;;;;;7.60;1.70;;;;;;;5.68;100.00;96873.50;109164;1257;72776;-63
2023/12/25 01:05:52;;;;;;;7.50;1.50;;;;;;;5.69;100.00;96872.77;109130;1257;68790;-63
2023/12/25 01:08:40;;;;;;;8.60;2.00;;;;;;;5.72;100.00;96882.13;109121;1257;72488;-64
2023/12/25 01:11:28;;;;;;;7.70;1.70;;;;;;;5.74;100.00;96881.70;109183;1257;58152;-63
2023/12/25 01:14:16;;;;;;;7.50;1.50;;;;;;;5.75;100.00;96891.83;109188;1257;58938;-66
2023/12/25 01:17:04;;;;;;;5.90;1.50;;;;;;;5.77;100.00;96885.30;109179;1257;71860;-64
2023/12/25 01:19:52;;;;;;;7.40;2.50;;;;;;;5.78;100.00;96889.98;109142;1257;68061;-64
2023/12/25 01:22:40;;;;;;;5.90;1.70;;;;;;;5.77;100.00;96896.94;109113;1257;71515;-65
2023/12/25 01:25:27;;;;;;;5.80;1.50;;;;;;;5.77;100.00;96903.98;109149;1258;57934;-65
2023/12/25 01:28:15;;;;;;;6.90;1.10;;;;;;;5.76;100.00;96897.50;109151;1257;59471;-63
2023/12/25 01:31:05;;;;;;;6.90;1.30;;;;;;;5.74;100.00;96903.14;109142;1257;72817;-63
2023/12/25 01:33:53;;;;;;;8.80;1.40;;;;;;;5.70;100.00;96894.17;109220;1257;66955;-64
2023/12/25 01:36:41;;;;;;;7.30;1.70;;;;;;;5.66;100.00;96905.83;109186;1257;74176;-64
2023/12/25 01:39:29;;;;;;;9.60;1.80;;;;;;;5.65;100.00;96914.43;109178;1257;58219;-63
2023/12/25 01:42:16;;;;;;;8.60;1.70;;;;;;;5.64;100.00;96920.96;109195;1257;60285;-61
2023/12/25 01:45:05;;;;;;;6.20;1.20;;;;;;;5.65;100.00;96916.86;109182;1257;74222;-65
2023/12/25 01:47:53;;;;;;;6.40;1.40;;;;;;;5.66;100.00;96911.83;109181;1257;67923;-64
2023/12/25 01:50:41;;;;;;;15.70;2.70;;;;;;;5.66;100.00;96916.39;109146;1257;73064;-65
2023/12/25 01:53:29;;;;;;;6.70;1.30;;;;;;;5.66;100.00;96911.16;109110;1257;59335;-66
2023/12/25 01:56:17;;;;;;;12.40;1.90;;;;;;;5.60;100.00;96914.13;109175;1257;61539;-64
2023/12/25 01:59:05;;;;;;;9.10;1.90;;;;;;;5.58;100.00;96919.80;109081;1257;70578;-64
2023/12/25 02:01:52;;;;;;;12.50;2.30;;;;;;;5.58;100.00;96916.47;109175;1257;67834;-64
2023/12/25 02:04:41;;;;;;;9.80;2.10;;;;;;;5.58;100.00;96921.32;109171;1257;72681;-63
2023/12/25 02:07:30;;;;;;;11.60;1.80;;;;;;;5.58;100.00;96929.50;109130;1257;59392;-63
2023/12/25 02:10:29;;;;;;;11.90;2.00;;;;;;;5.60;100.00;96928.45;109022;1257;60449;-64
2023/12/25 02:13:16;;;;;;;14.90;2.30;;;;;;;5.62;100.00;96938.30;109164;1257;72816;-63
2023/12/25 02:16:04;;;;;;;12.00;1.90;;;;;;;5.63;100.00;96938.80;109204;1257;66387;-63
2023/12/25 02:18:53;;;;;;;11.30;2.60;;;;;;;5.65;100.00;96939.92;109080;1257;71355;-62
2023/12/25 02:21:42;;;;;;;16.50;2.40;;;;;;;5.66;100.00;96947.94;109108;1257;60612;-64
2023/12/25 02:24:31;;;;;;;13.40;2.70;;;;;;;5.68;100.00;96950.12;109172;1257;61072;-65
2023/12/25 02:27:19;;;;;;;16.60;2.80;;;;;;;5.69;100.00;96943.09;109138;1257;73086;-64
2023/12/25 02:30:07;;;;;;;11.70;2.00;;;;;;;5.71;100.00;96954.33;109010;1257;66364;-64
2023/12/25 02:32:55;;;;;;;15.80;2.70;;;;;;;5.71;100.00;96950.17;109166;1257;70511;-64
2023/12/25 02:35:43;;;;;;;15.00;3.00;;;;;;;5.69;100.00;96950.24;109142;1257;60595;-64
2023/12/25 02:38:31;;;;;;;11.00;2.20;;;;;;;5.67;100.00;96951.10;109069;1257;61034;-64
2023/12/25 02:41:19;;;;;;;18.00;3.10;;;;;;;5.63;100.00;96948.56;109154;1257;72730;-65
2023/12/25 02:44:07;;;;;;;14.30;2.60;;;;;;;5.62;100.00;96959.31;109169;1257;67598;-65
2023/12/25 02:46:54;;;;;;;16.50;3.00;;;;;;;5.63;100.00;96968.25;109109;1256;71074;-63
2023/12/25 02:49:42;;;;;;;15.90;2.90;;;;;;;5.66;100.00;96962.94;109154;1257;59670;-64
2023/12/25 02:52:29;;;;;;;15.20;2.10;;;;;;;5.70;100.00;96969.27;108269;1263;1002367;-65
2023/12/25 02:55:17;;;;;;;13.30;2.40;;;;;;;5.72;100.00;96975.18;109177;1257;72871;-65
2023/12/25 02:58:05;;;;;;;16.00;2.70;;;;;;;5.73;100.00;96979.87;109213;1256;65739;-64
2023/12/25 03:00:52;;;;;;;17.20;2.60;;;;;;;5.73;100.00;96983.52;109066;1257;73454;-62
2023/12/25 03:03:40;;;;;;;19.40;2.90;;;;;;;5.74;100.00;96980.45;109178;1257;60609;-64
2023/12/25 03:06:27;;;;;;;18.60;2.70;;;;;;;5.76;100.00;96985.70;109145;1257;57761;-63
2023/12/25 03:09:16;;;;;;;21.60;2.80;;;;;;;5.78;100.00;96983.48;109102;1257;74005;-63
2023/12/25 03:12:04;;;;;;;16.90;2.80;;;;;;;5.82;100.00;96985.12;109218;1257;67391;-63
2023/12/25 03:14:52;;;;;;;17.00;2.70;;;;;;;5.85;100.00;96983.56;109203;1257;71466;-64
2023/12/25 03:17:40;;;;;;;15.90;2.70;;;;;;;5.86;100.00;96980.11;109203;1257;58594;-65
2023/12/25 03:20:27;;;;;;;21.00;2.40;;;;;;;5.87;100.00;96969.77;109244;1257;59132;-64
2023/12/25 03:23:15;;;;;;;15.70;2.50;;;;;;;5.85;100.00;96973.84;109148;1257;72889;-63
2023/12/25 03:26:02;;;;;;;19.60;3.00;;;;;;;5.85;100.00;96977.93;109196;1257;68937;-65
2023/12/25 03:28:50;;;;;;;20.90;3.60;;;;;;;5.84;100.00;96984.11;109114;1257;72698;-64
2023/12/25 03:31:38;;;;;;;18.50;2.80;;;;;;;5.85;100.00;96976.98;109150;1257;59717;-63
2023/12/25 03:34:26;;;;;;;14.50;3.10;;;;;;;5.87;100.00;96979.21;109186;1256;61328;-64
2023/12/25 03:37:14;;;;;;;14.70;2.60;;;;;;;5.90;100.00;96973.68;109187;1257;74184;-63
2023/12/25 03:40:03;;;;;;;16.80;2.50;;;;;;;5.89;100.00;96973.36;109155;1257;68443;-63
2023/12/25 03:42:54;;;;;;;15.60;2.80;;;;;;;5.94;100.00;96976.20;109107;1261;73716;-63
2023/12/25 03:45:42;;;;;;;19.40;3.00;;;;;;;5.95;100.00;96975.52;109125;1257;59634;-62
2023/12/25 03:48:29;;;;;;;12.80;3.10;;;;;;;5.98;100.00;96960.16;109188;1257;60036;-63
2023/12/25 03:51:17;;;;;;;14.50;2.30;;;;;;;5.99;100.00;96965.15;109150;1257;72443;-62
2023/12/25 03:54:05;;;;;;;13.50;2.30;;;;;;;6.01;100.00;96962.87;109094;1257;67831;-62
2023/12/25 03:56:54;;;;;;;17.00;2.60;;;;;;;6.00;100.00;96963.59;109120;1257;71144;-62
2023/12/25 03:59:42;;;;;;;15.50;2.70;;;;;;;5.99;100.00;96967.92;109154;1257;60616;-63
2023/12/25 04:02:30;;;;;;;13.90;2.40;;;;;;;6.02;100.00;96965.54;109135;1257;58768;-64
2023/12/25 04:05:18;;;;;;;13.40;2.60;;;;;;;6.04;100.00;96958.25;109015;1257;74012;-65
2023/12/25 04:08:06;;;;;;;13.80;2.30;;;;;;;6.00;100.00;96964.81;109018;1257;181006;-64
2023/12/25 04:10:54;;;;;;;11.80;1.90;;;;;;;6.04;100.00;96964.05;109132;1257;73561;-66
2023/12/25 04:13:41;;;;;;;12.70;2.30;;;;;;;6.08;100.00;96971.78;109097;1257;59654;-65
2023/12/25 04:16:29;;;;;;;11.70;2.20;;;;;;;6.12;100.00;96975.37;109149;1257;59018;-65
2023/12/25 04:19:17;;;;;;;12.50;2.50;;;;;;;6.16;100.00;96972.69;109177;1257;71474;-66
2023/12/25 04:22:05;;;;;;;18.00;2.90;;;;;;;6.16;100.00;96974.73;109122;1257;67396;-64
2023/12/25 04:24:52;;;;;;;14.20;2.10;;;;;;;6.19;100.00;96972.00;109163;1257;71473;-63
2023/12/25 04:27:40;;;;;;;13.80;2.50;;;;;;;6.24;100.00;96972.78;109053;1257;60931;-67
2023/12/25 04:30:28;;;;;;;15.80;2.80;;;;;;;6.26;100.00;96975.20;109171;1257;59295;-63
2023/12/25 04:33:16;;;;;;;15.40;2.50;;;;;;;6.28;100.00;96966.01;109123;1257;73768;-64
2023/12/25 04:36:04;;;;;;;14.10;2.60;;;;;;;6.29;100.00;96964.85;109100;1257;68805;-64
2023/12/25 04:38:51;;;;;;;16.90;2.70;;;;;;;6.28;100.00;96970.92;109000;1260;72491;-62
2023/12/25 04:41:40;;;;;;;14.70;1.90;;;;;;;6.28;100.00;96975.91;109060;1257;59352;-64
2023/12/25 04:44:28;;;;;;;11.30;2.00;;;;;;;6.27;100.00;96973.42;109156;1257;60301;-65
2023/12/25 04:47:15;;;;;;;14.10;2.40;;;;;;;6.24;100.00;96983.71;109121;1257;71462;-63
2023/12/25 04:50:03;;;;;;;13.30;2.90;;;;;;;6.22;100.00;96979.70;109204;1257;67923;-64
2023/12/25 04:52:51;;;;;;;13.10;2.60;;;;;;;6.21;100.00;96985.12;109187;1257;72381;-65
2023/12/25 04:55:40;;;;;;;13.50;2.20;;;;;;;6.18;100.00;96977.31;109073;1257;59578;-64
2023/12/25 04:58:28;;;;;;;13.80;2.20;;;;;;;6.18;100.00;96985.06;109199;1257;59232;-63
2023/12/25 05:01:16;;;;;;;13.90;2.30;;;;;;;6.18;100.00;96982.13;109149;1257;72934;-64
2023/12/25 05:04:04;;;;;;;13.20;3.00;;;;;;;6.19;100.00;96982.23;109157;1257;68051;-63
2023/12/25 05:06:52;;;;;;;10.70;2.20;;;;;;;6.19;100.00;96998.33;109093;1257;72300;-65
2023/12/25 05:09:40;;;;;;;10.50;1.90;;;;;;;6.20;100.00;96998.09;109041;1257;58355;-65
2023/12/25 05:12:29;;;;;;;12.50;2.50;;;;;;;6.23;100.00;97002.40;109206;1257;60277;-65
2023/12/25 05:15:16;;;;;;;14.10;2.20;;;;;;;6.25;100.00;97003.74;109086;1257;72538;-65
2023/12/25 05:18:04;;;;;;;14.00;2.80;;;;;;;6.24;100.00;96999.89;109099;1257;67750;-65
2023/12/25 05:20:53;;;;;;;13.00;2.20;;;;;;;6.22;100.00;96987.30;109160;1257;72328;-63
2023/12/25 05:23:40;;;;;;;13.00;2.10;;;;;;;6.22;100.00;96989.98;109180;1257;59482;-63
2023/12/25 05:26:28;;;;;;;14.00;2.30;;;;;;;6.19;100.00;96991.96;109176;1257;58818;-64
2023/12/25 05:29:15;;;;;;;12.90;2.20;;;;;;;6.16;100.00;96981.40;109126;1257;72673;-63
2023/12/25 05:32:04;;;;;;;12.50;2.30;;;;;;;6.13;100.00;96980.30;109065;1257;68977;-64
2023/12/25 05:34:51;;;;;;;14.00;2.70;;;;;;;6.11;100.00;96982.11;109130;1257;72456;-64
2023/12/25 05:37:39;;;;;;;12.70;1.90;;;;;;;6.10;100.00;96982.41;109065;1257;60470;-64
2023/12/25 05:40:27;;;;;;;12.60;2.20;;;;;;;6.11;100.00;96983.92;109092;1262;59967;-63
2023/12/25 05:43:14;;;;;;;11.50;2.10;;;;;;;6.14;100.00;96996.44;109129;1257;73787;-63
2023/12/25 05:46:02;;;;;;;14.20;1.80;;;;;;;6.15;100.00;96990.15;109008;1257;67948;-67
2023/12/25 05:48:50;;;;;;;10.60;2.40;;;;;;;6.19;100.00;97000.52;109089;1257;71492;-64
2023/12/25 05:51:38;;;;;;;12.90;2.20;;;;;;;6.20;100.00;96997.04;109093;1258;60613;-67
2023/12/25 05:54:25;;;;;;;12.80;2.20;;;;;;;6.20;100.00;97007.24;108943;1260;60155;-63
2023/12/25 05:57:13;;;;;;;11.80;1.70;;;;;;;6.25;100.00;96994.21;109023;1260;71503;-64
2023/12/25 06:00:00;;;;;;;9.20;2.00;;;;;;;6.27;100.00;97001.66;109148;1258;67641;-64
2023/12/25 06:02:58;;;;;;;10.50;1.90;;;;;;;6.30;100.00;96987.38;109087;1258;71093;-64
2023/12/25 06:05:46;;;;;;;13.60;2.20;;;;;;;6.30;100.00;96982.34;109076;1257;58796;-67
2023/12/25 06:08:34;;;;;;;8.10;1.70;;;;;;;6.29;100.00;96990.05;109100;1257;60032;-65
2023/12/25 06:11:22;;;;;;;11.50;2.10;;;;;;;6.26;100.00;96979.42;109037;1257;73074;-64
2023/12/25 06:14:09;;;;;;;14.70;2.10;;;;;;;6.21;100.00;96981.56;109153;1257;66420;-64
2023/12/25 06:16:57;;;;;;;12.20;2.10;;;;;;;6.23;100.00;96994.27;109136;1257;73423;-64
2023/12/25 06:19:44;;;;;;;11.80;2.40;;;;;;;6.21;100.00;96994.83;109099;1257;59407;-64
2023/12/25 06:22:33;;;;;;;11.70;2.10;;;;;;;6.21;100.00;96983.55;109126;1257;61029;-65
2023/12/25 06:25:20;;;;;;;13.00;2.50;;;;;;;6.20;100.00;96992.13;109190;1257;74177;-64
2023/12/25 06:28:08;;;;;;;13.20;2.20;;;;;;;6.19;100.00;96998.52;109137;1258;68094;-64
2023/12/25 06:30:55;;;;;;;13.20;2.30;;;;;;;6.20;100.00;97006.92;109099;1257;72667;-62
2023/12/25 06:33:43;;;;;;;14.50;1.90;;;;;;;6.22;100.00;97007.58;109016;1257;59403;-61
2023/12/25 06:36:30;;;;;;;12.10;2.00;;;;;;;6.24;100.00;97012.60;109146;1257;60305;-61
2023/12/25 06:39:18;;;;;;;13.60;1.90;;;;;;;6.27;100.00;96999.91;109124;1257;72749;-63
2023/12/25 06:42:06;;;;;;;9.30;2.20;;;;;;;6.32;100.00;97008.98;109121;1260;67683;-62
2023/12/25 06:44:53;;;;;;;8.90;1.90;;;;;;;6.35;100.00;97012.32;109099;1260;73450;-62
2023/12/25 06:47:44;;;;;;;12.80;2.90;;;;;;;6.38;100.00;97028.33;109068;1259;57833;-62
2023/12/25 06:50:32;;;;;;;13.30;2.50;;;;;;;6.39;100.00;97018.55;109130;1257;60125;-61
2023/12/25 06:53:20;;;;;;;17.30;2.10;;;;;;;6.40;100.00;97019.84;109104;1258;71709;-61
2023/12/25 06:56:08;;;;;;;12.80;1.90;;;;;;;6.40;100.00;97023.70;109126;1258;66800;-63
2023/12/25 06:58:56;;;;;;;14.40;2.80;;;;;;;6.41;100.00;97032.48;109056;1259;72672;-63
2023/12/25 07:01:44;;;;;;;18.80;3.80;;;;;;;6.41;99.96;97026.84;109074;1257;59309;-62
2023/12/25 07:04:31;;;;;;;11.80;2.90;;;;;;;6.41;99.92;97041.77;109068;1259;60012;-64
2023/12/25 07:07:19;;;;;;;15.10;3.00;;;;;;;6.35;98.36;97039.71;109009;1261;73041;-63
2023/12/25 07:10:07;;;;;;;14.40;2.60;;;;;;;6.39;96.97;97042.69;109039;1257;68209;-63
2023/12/25 07:12:55;;;;;;;12.60;2.30;;;;;;;6.38;96.86;97050.74;109170;1257;72889;-64
2023/12/25 07:15:42;;;;;;;13.60;2.50;;;;;;;6.38;94.80;97043.21;109074;1257;58153;-63
2023/12/25 07:18:30;;;;;;;10.20;2.20;;;;;;;6.39;94.59;97058.18;109177;1257;60048;-63
2023/12/25 07:21:18;;;;;;;12.70;2.30;;;;;;;6.42;95.00;97059.96;109051;1257;72866;-63
2023/12/25 07:24:06;;;;;;;14.10;2.80;;;;;;;6.43;95.14;97061.25;109194;1257;67852;-63
2023/12/25 07:26:54;;;;;;;18.20;3.50;;;;;;;6.42;94.62;97066.16;109149;1257;73842;-64
2023/12/25 07:29:41;;;;;;;16.60;3.10;;;;;;;6.44;93.86;97072.64;109054;1256;59723;-61
2023/12/25 07:32:29;;;;;;;16.40;2.80;;;;;;;6.43;93.90;97075.88;109174;1257;58718;-63
2023/12/25 07:35:18;;;;;;;17.30;3.00;;;;;;;6.45;93.86;97071.13;109090;1257;71587;-63
2023/12/25 07:38:06;;;;;;;14.50;2.90;;;;;;;6.47;93.46;97068.64;109177;1257;68822;-63
2023/12/25 07:40:54;;;;;;;18.50;3.90;;;;;;;6.51;93.39;97074.05;109078;1257;73658;-62
2023/12/25 07:43:42;;;;;;;14.60;3.10;;;;;;;6.48;93.16;97073.73;109168;1257;58071;-62
2023/12/25 07:46:29;;;;;;;17.80;2.80;;;;;;;6.47;92.30;97076.33;109077;1257;61161;-62
2023/12/25 07:49:17;;;;;;;15.10;2.70;;;;;;;6.41;91.31;97091.60;109047;1257;71481;-64
2023/12/25 07:52:05;;;;;;;12.20;2.70;;;;;;;6.40;91.17;97082.94;109023;1257;66877;-63
2023/12/25 07:54:55;;;;;;;13.70;3.30;;;;;;;6.40;91.23;97086.37;109095;1260;71921;-61
2023/12/25 07:57:43;;;;;;;18.60;3.40;;;;;;;6.42;91.38;97092.72;108955;1264;58006;-63
2023/12/25 08:00:33;;;;;;;20.00;2.50;;;;;;;6.46;91.72;97100.57;109057;1257;60475;-61
2023/12/25 08:03:20;;;;;;;16.00;2.90;;;;;;;6.48;91.12;97106.33;109080;1257;70987;-63
2023/12/25 08:06:08;;;;;;;15.20;2.40;;;;;;;6.55;90.57;97105.11;109073;1257;67919;-64
2023/12/25 08:08:56;;;;;;;15.50;2.80;;;;;;;6.61;89.54;97108.95;109098;1257;72568;-61
2023/12/25 08:11:44;;;;;;;13.90;2.70;;;;;;;6.63;88.88;97096.59;109035;1261;57328;-65
2023/12/25 08:14:32;;;;;;;12.70;2.60;;;;;;;6.66;89.23;97097.88;109099;1257;60066;-63
2023/12/25 08:17:20;;;;;;;17.60;3.20;;;;;;;6.66;88.03;97100.42;109069;1257;73177;-63
2023/12/25 08:20:09;;;;;;;13.30;2.80;;;;;;;6.75;87.80;97110.52;109027;1257;65444;-62
2023/12/25 08:22:57;;;;;;;16.80;3.50;;;;;;;6.76;86.38;97111.77;109089;1259;71228;-62
2023/12/25 08:25:44;;;;;;;21.10;3.40;;;;;;;6.81;86.28;97121.49;109111;1258;57227;-62
2023/12/25 08:28:32;;;;;;;12.60;3.40;;;;;;;6.91;85.40;97109.33;109047;1257;61101;-62
2023/12/25 08:31:20;;;;;;;13.40;2.80;;;;;;;7.16;84.12;97108.83;109071;1257;73134;-63
2023/12/25 08:34:08;;;;;;;15.50;3.20;;;;;;;7.42;81.76;97123.26;109089;1260;67959;-64
2023/12/25 08:36:56;;;;;;;17.10;3.80;;;;;;;7.30;81.94;97126.04;108952;1261;72769;-63
2023/12/25 08:39:44;;;;;;;17.90;3.50;;;;;;;7.63;80.94;97131.02;109092;1259;57676;-65
2023/12/25 08:42:31;;;;;;;16.00;3.30;;;;;;;7.81;79.51;97131.48;109116;1257;61383;-63
2023/12/25 08:45:19;;;;;;;21.60;3.50;;;;;;;7.86;80.14;97124.55;109131;1258;73924;-64
2023/12/25 08:48:07;;;;;;;13.60;2.90;;;;;;;7.99;78.10;97135.89;109049;1257;66608;-62
2023/12/25 08:50:55;;;;;;;17.10;3.40;;;;;;;8.38;76.68;97137.86;109163;1257;72896;-63
2023/12/25 08:53:44;;;;;;;18.60;4.10;;;;;;;8.39;74.82;97128.65;109013;1257;58024;-62
2023/12/25 08:56:32;;;;;;;15.70;3.50;;;;;;;8.06;75.70;97119.86;109203;1257;59953;-62
2023/12/25 08:59:20;;;;;;;17.70;2.90;;;;;;;7.88;76.60;97125.72;109074;1257;73132;-62
2023/12/25 09:02:07;;;;;;;14.30;3.00;;;;;;;8.47;75.00;97130.15;109141;1257;67899;-62
2023/12/25 09:04:55;;;;;;;17.50;3.30;;;;;;;8.03;75.48;97132.83;109189;1257;71314;-63
2023/12/25 09:07:42;;;;;;;13.40;2.90;;;;;;;8.41;75.70;97126.13;109080;1257;59033;-64
2023/12/25 09:10:30;;;;;;;15.60;3.20;;;;;;;9.23;72.59;97130.21;107578;1258;1002725;-62
2023/12/25 09:13:17;;;;;;;17.60;2.90;;;;;;;9.05;72.01;97136.55;109060;1258;70728;-61
2023/12/25 09:16:06;;;;;;;13.70;3.00;;;;;;;8.59;73.48;97135.52;109114;1257;68828;-63
2023/12/25 09:18:54;;;;;;;16.70;2.60;;;;;;;8.15;74.63;97135.07;108254;1257;1002081;-64
2023/12/25 09:21:42;;;;;;;15.70;2.60;;;;;;;7.71;76.27;97147.78;109191;1257;57303;-60
2023/12/25 09:24:30;;;;;;;17.10;3.60;;;;;;;7.59;77.58;97139.77;109198;1257;58781;-62
2023/12/25 09:27:18;;;;;;;15.90;3.50;;;;;;;7.33;79.55;97146.70;109209;1257;72156;-63
2023/12/25 09:30:08;;;;;;;11.90;2.70;;;;;;;7.15;81.21;97157.13;109103;1257;67783;-62
2023/12/25 09:32:56;;;;;;;15.00;2.90;;;;;;;7.00;81.58;97155.36;109038;1257;72686;-62
2023/12/25 09:35:44;;;;;;;16.30;3.20;;;;;;;7.26;79.44;97156.37;109077;1257;57646;-62
2023/12/25 09:38:32;;;;;;;15.70;2.70;;;;;;;8.15;75.74;97144.77;109150;1257;59984;-62
2023/12/25 09:41:23;;;;;;;16.10;3.10;;;;;;;7.92;74.84;97160.83;109172;1257;73539;-63
2023/12/25 09:44:10;;;;;;;15.60;2.80;;;;;;;7.98;73.20;97151.61;109078;1257;66871;-62
2023/12/25 09:46:59;;;;;;;13.30;2.60;;;;;;;8.81;69.49;97150.33;108315;1257;1002597;-66
2023/12/25 09:49:47;;;;;;;10.30;2.60;;;;;;;8.98;67.08;97140.70;109047;1257;57503;-64
2023/12/25 09:52:35;;;;;;;16.30;3.20;;;;;;;9.61;65.27;97142.23;109047;1257;60596;-62
2023/12/25 09:55:22;;;;;;;12.30;2.80;;;;;;;10.46;62.30;97136.73;109135;1257;72753;-63
2023/12/25 09:58:10;;;;;;;10.80;2.60;;;;;;;10.35;60.64;97146.80;109076;1257;68053;-64
2023/12/25 10:00:59;;;;;;;14.40;2.40;;;;;;;10.18;61.07;97146.35;109083;1257;72350;-62
2023/12/25 10:03:47;;;;;;;14.50;2.70;;;;;;;9.85;62.59;97149.20;109157;1257;58277;-63
2023/12/25 10:06:35;;;;;;;12.40;2.80;;;;;;;10.02;61.86;97141.59;109068;1257;60074;-63
2023/12/25 10:09:24;;;;;;;12.00;2.70;;;;;;;10.11;61.89;97146.71;109122;1257;71473;-63
2023/12/25 10:12:11;;;;;;;13.00;2.70;;;;;;;9.44;64.33;97138.59;109068;1257;65352;-62
2023/12/25 10:14:59;;;;;;;13.00;2.60;;;;;;;9.81;64.50;97142.17;109185;1257;71108;-61
2023/12/25 10:17:47;;;;;;;12.10;2.50;;;;;;;10.49;60.41;97129.14;109135;1256;58149;-62
2023/12/25 10:20:36;;;;;;;12.60;2.60;;;;;;;11.08;58.63;97126.42;109149;1257;58828;-63
2023/12/25 10:23:33;;;;;;;12.60;2.50;;;;;;;11.67;56.66;97130.90;109067;1257;72862;-61
2023/12/25 10:26:28;;;;;;;11.30;2.60;;;;;;;11.83;55.83;97130.19;109075;1256;65876;-62
2023/12/25 10:29:15;;;;;;;10.40;2.50;;;;;;;12.01;53.58;97146.11;108942;1257;71208;-63
2023/12/25 10:32:20;;;;;;;11.60;2.80;;;;;;;11.96;52.69;97134.77;109175;1257;57885;-63
2023/12/25 10:35:13;;;;;;;10.30;1.90;;;;;;;11.85;53.46;97153.48;109136;1257;58780;-61
2023/12/25 10:38:05;;;;;;;11.40;3.10;;;;;;;10.74;56.06;97162.41;109057;1258;72784;-62
2023/12/25 10:40:52;;;;;;;13.70;2.30;;;;;;;9.75;59.22;97166.84;109175;1257;67231;-62
2023/12/25 10:43:42;;;;;;;14.70;2.70;;;;;;;9.00;62.89;97167.95;109021;1257;72826;-61
2023/12/25 10:46:41;;;;;;;12.40;2.50;;;;;;;8.34;66.06;97171.35;109118;1257;57795;-63
2023/12/25 10:49:30;;;;;;;13.30;2.50;;;;;;;7.86;69.35;97191.67;109076;1257;61061;-61
2023/12/25 10:52:18;;;;;;;15.60;2.90;;;;;;;7.39;72.26;97195.92;107635;1257;1002293;-63
2023/12/25 10:55:07;;;;;;;12.80;2.90;;;;;;;7.17;73.33;97196.23;109200;1257;67555;-63
2023/12/25 10:57:56;;;;;;;13.40;2.70;;;;;;;6.93;75.61;97199.73;109064;1257;73749;-64
2023/12/25 11:00:56;;;;;;;15.10;2.70;;;;;;;6.67;78.35;97194.84;109073;1257;57425;-62
2023/12/25 11:03:44;;;;;;;16.50;2.90;;;;;;;6.57;79.64;97201.58;109033;1257;61198;-62
2023/12/25 11:06:33;;;;;;;12.40;3.00;;;;;;;6.41;80.02;97211.17;109187;1257;72968;-63
2023/12/25 11:09:22;;;;;;;14.10;3.30;;;;;;;6.29;80.29;97214.45;109077;1257;66323;-62
2023/12/25 11:12:10;;;;;;;14.90;2.40;;;;;;;6.14;79.44;97210.15;109077;1257;70289;-62
2023/12/25 11:14:59;;;;;;;13.00;2.50;;;;;;;6.12;79.27;97205.56;109020;1257;58291;-63
2023/12/25 11:17:48;;;;;;;14.50;3.00;;;;;;;6.11;79.77;97225.59;109181;1257;58258;-63
2023/12/25 11:20:41;;;;;;;11.40;2.50;;;;;;;6.05;79.34;97225.21;108961;1257;71712;-64
2023/12/25 11:23:42;;;;;;;13.00;2.50;;;;;;;6.03;79.23;97225.76;109165;1257;67625;-63
2023/12/25 11:26:31;;;;;;;12.00;2.50;;;;;;;5.94;78.65;97223.58;109019;1257;71236;-64
2023/12/25 11:29:20;;;;;;;12.60;2.70;;;;;;;5.93;79.03;97231.08;108993;1257;57317;-62
2023/12/25 11:32:11;;;;;;;15.40;3.40;;;;;;;5.92;78.38;97244.59;109078;1256;60452;-63
2023/12/25 11:34:59;;;;;;;11.60;2.10;;;;;;;5.92;78.76;97254.50;109042;1257;74247;-63
2023/12/25 11:37:47;;;;;;;18.00;3.00;;;;;;;5.90;77.88;97261.41;109137;1257;67726;-62
2023/12/25 11:40:40;;;;;;;13.70;3.10;;;;;;;5.87;77.71;97276.41;109149;1257;71410;-62
2023/12/25 11:43:31;;;;;;;13.90;3.00;;;;;;;5.84;78.33;97285.05;109075;1257;57619;-63
2023/12/25 11:46:19;;;;;;;14.40;2.90;;;;;;;5.77;79.19;97288.34;108950;1256;61300;-63
2023/12/25 11:49:08;;;;;;;15.00;2.90;;;;;;;5.71;79.40;97279.80;109103;1256;72772;-62
2023/12/25 11:51:56;;;;;;;10.30;2.30;;;;;;;5.73;79.17;97298.31;109167;1257;66389;-61
2023/12/25 11:54:46;;;;;;;15.20;2.60;;;;;;;5.67;79.20;97293.73;109023;1257;71202;-62
2023/12/25 11:57:34;;;;;;;17.60;3.20;;;;;;;5.65;79.03;97288.83;109077;1257;57422;-63
2023/12/25 12:00:25;;;;;;;17.40;3.00;;;;;;;5.65;78.92;97277.32;109122;1256;58685;-61
2023/12/25 12:03:13;;;;;;;11.40;2.40;;;;;;;5.60;78.76;97291.31;109075;1257;73004;-63
2023/12/25 12:06:03;;;;;;;13.60;2.80;;;;;;;5.58;78.88;97302.39;109217;1257;68161;-61
2023/12/25 12:08:51;;;;;;;15.30;2.90;;;;;;;5.56;79.23;97299.86;109174;1257;71135;-63
2023/12/25 12:11:40;;;;;;;13.90;2.70;;;;;;;5.54;78.51;97300.92;109069;1257;57337;-63
2023/12/25 12:14:27;;;;;;;14.50;2.90;;;;;;;5.54;78.79;97299.67;109185;1257;61062;-62
2023/12/25 12:17:16;;;;;;;16.10;3.20;;;;;;;5.52;78.62;97319.05;109214;1257;71639;-62
2023/12/25 12:20:04;;;;;;;11.60;2.40;;;;;;;5.50;77.26;97318.18;109093;1256;66846;-62
2023/12/25 12:22:53;;;;;;;13.70;3.20;;;;;;;5.49;76.92;97311.39;109217;1257;71268;-61
2023/12/25 12:25:41;;;;;;;18.90;3.70;;;;;;;5.51;76.86;97320.57;108439;1257;1002938;-62
2023/12/25 12:28:28;;;;;;;18.00;3.20;;;;;;;5.48;77.09;97321.55;109128;1256;58948;-63
2023/12/25 12:31:15;;;;;;;17.40;3.30;;;;;;;5.46;76.85;97327.33;109036;1257;71547;-62
2023/12/25 12:34:03;;;;;;;13.70;2.50;;;;;;;5.46;77.02;97334.69;109225;1257;68975;-62
2023/12/25 12:37:05;;;;;;;13.00;3.20;;;;;;;5.44;76.52;97335.30;109096;1257;72730;-62
2023/12/25 12:39:53;;;;;;;12.00;2.00;;;;;;;5.45;77.02;97342.07;109167;1256;57331;-63
2023/12/25 12:42:41;;;;;;;12.70;2.70;;;;;;;5.43;77.00;97348.90;109124;1257;59026;-64
2023/12/25 12:45:29;;;;;;;18.90;3.30;;;;;;;5.43;76.84;97334.11;109149;1257;73886;-62
2023/12/25 12:48:17;;;;;;;20.40;3.10;;;;;;;5.43;76.87;97362.85;109105;1257;67063;-62
2023/12/25 12:51:06;;;;;;;17.00;3.00;;;;;;;5.43;77.17;97361.40;109147;1257;72539;-63
2023/12/25 12:53:54;;;;;;;16.80;3.60;;;;;;;5.43;76.52;97354.58;109059;1257;57268;-64
2023/12/25 12:56:42;;;;;;;14.70;2.50;;;;;;;5.44;76.70;97364.84;109191;1256;60515;-61
2023/12/25 12:59:30;;;;;;;18.60;3.00;;;;;;;5.43;76.37;97369.81;109178;1257;71715;-62